createdAt,value
2019-04-25T00:00:03.634Z,1013.56
2019-04-25T00:10:08.889Z,1013.52
2019-04-25T00:20:03.692Z,1013.53
2019-04-25T00:30:04.505Z,1013.60
2019-04-25T00:40:03.284Z,1013.68
2019-04-25T00:50:03.145Z,1013.76
2019-04-25T01:00:03.690Z,1013.80
2019-04-25T01:10:08.857Z,1013.78
2019-04-25T01:20:04.891Z,1013.81
2019-04-25T01:30:06.837Z,1013.83
2019-04-25T01:40:04.964Z,1013.66
2019-04-25T01:50:08.914Z,1013.63
2019-04-25T02:00:05.194Z,1013.62
2019-04-25T02:10:08.875Z,1013.61
2019-04-25T02:20:04.985Z,1013.50
2019-04-25T02:30:09.792Z,1013.56
2019-04-25T02:40:09.132Z,1013.55
2019-04-25T02:50:09.882Z,1013.58
2019-04-25T03:00:09.453Z,1013.58
2019-04-25T03:10:10.389Z,1013.56
2019-04-25T03:20:14.135Z,1013.54
2019-04-25T03:30:13.874Z,1013.54
2019-04-25T03:40:07.860Z,1013.66
2019-04-25T03:50:09.801Z,1013.65
2019-04-25T04:00:08.696Z,1013.73
2019-04-25T04:10:08.837Z,1013.74
2019-04-25T04:20:06.793Z,1013.64
2019-04-25T04:30:05.789Z,1013.72
2019-04-25T04:40:10.331Z,1013.78
2019-04-25T04:50:04.632Z,1013.89
2019-04-25T05:00:04.612Z,1013.79
2019-04-25T05:10:08.705Z,1013.71
2019-04-25T05:20:04.253Z,1013.93
2019-04-25T05:30:09.361Z,1013.82
2019-04-25T05:40:06.424Z,1013.88
2019-04-25T05:50:04.468Z,1013.82
2019-04-25T06:00:04.633Z,1013.61
2019-04-25T06:10:08.614Z,1013.60
2019-04-25T06:20:06.859Z,1013.61
2019-04-25T06:30:05.282Z,1013.57
2019-04-25T06:40:05.596Z,1013.51
2019-04-25T06:50:08.642Z,1013.50
2019-04-25T07:00:05.859Z,1013.43
2019-04-25T07:10:04.386Z,1013.41
2019-04-25T07:20:04.621Z,1013.46
2019-04-25T07:30:09.901Z,1013.32
2019-04-25T07:40:04.835Z,1013.20
2019-04-25T07:50:08.145Z,1013.14
2019-04-25T08:00:05.496Z,1013.13
2019-04-25T08:10:04.759Z,1013.06
2019-04-25T08:20:04.696Z,1012.93
2019-04-25T08:30:05.071Z,1012.90
2019-04-25T08:40:04.740Z,1012.86
2019-04-25T08:50:09.009Z,1012.87
2019-04-25T09:00:07.083Z,1012.75
2019-04-25T09:10:04.271Z,1012.73
2019-04-25T09:20:04.739Z,1012.59
2019-04-25T09:30:06.712Z,1012.58
2019-04-25T09:40:08.697Z,1012.56
2019-04-25T09:50:04.970Z,1012.51
2019-04-25T10:00:04.406Z,1012.52
2019-04-25T10:10:04.485Z,1012.47
2019-04-25T10:20:03.487Z,1012.35
2019-04-25T10:30:23.643Z,1012.23
2019-04-25T10:40:05.034Z,1012.06
2019-04-25T10:50:04.574Z,1011.95
2019-04-25T11:00:10.135Z,1011.81
2019-04-25T11:10:09.001Z,1011.63
2019-04-25T11:20:06.381Z,1011.51
2019-04-25T11:30:13.813Z,1011.47
2019-04-25T11:40:09.019Z,1011.45
2019-04-25T11:50:04.687Z,1011.47
2019-04-25T12:00:04.987Z,1011.25
2019-04-25T12:10:04.485Z,1011.29
2019-04-25T12:20:09.004Z,1011.05
2019-04-25T12:30:06.790Z,1011.05
2019-04-25T12:40:08.899Z,1011.08
2019-04-25T12:50:04.742Z,1011.18
2019-04-25T13:00:08.012Z,1010.98
2019-04-25T13:10:03.603Z,1011.04
2019-04-25T13:20:06.218Z,1010.95
2019-04-25T13:30:07.785Z,1010.92
2019-04-25T13:40:03.315Z,1010.96
2019-04-25T13:50:03.151Z,1011.02
2019-04-25T14:00:05.269Z,1010.99
2019-04-25T14:10:08.992Z,1010.92
2019-04-25T14:20:08.866Z,1010.74
2019-04-25T14:30:05.424Z,1010.68
2019-04-25T14:40:04.811Z,1010.78
2019-04-25T14:50:08.878Z,1010.58
2019-04-25T15:00:05.721Z,1010.78
2019-04-25T15:10:03.286Z,1010.65
2019-04-25T15:20:08.386Z,1010.62
2019-04-25T15:30:04.287Z,1010.61
2019-04-25T15:40:07.480Z,1010.51
2019-04-25T15:50:03.643Z,1010.46
2019-04-25T16:00:04.175Z,1010.26
2019-04-25T16:10:03.320Z,1010.22
2019-04-25T16:20:08.614Z,1010.22
2019-04-25T16:30:03.544Z,1010.24
2019-04-25T16:40:03.309Z,1010.25
2019-04-25T16:50:08.572Z,1010.32
2019-04-25T17:00:03.529Z,1010.16
2019-04-25T17:10:03.372Z,1010.17
2019-04-25T17:20:02.980Z,1010.05
2019-04-25T17:30:09.234Z,1010.11
2019-04-25T17:40:08.998Z,1010.16
2019-04-25T17:50:08.599Z,1010.19
2019-04-25T18:00:08.851Z,1010.15
2019-04-25T18:10:03.624Z,1010.10
2019-04-25T18:20:03.474Z,1010.08
2019-04-25T18:30:06.901Z,1010.25
2019-04-25T18:40:08.777Z,1010.19
2019-04-25T18:50:02.975Z,1010.13
2019-04-25T19:00:04.148Z,1010.28
2019-04-25T19:10:08.204Z,1010.47
2019-04-25T19:20:03.612Z,1010.49
2019-04-25T19:30:03.899Z,1010.66
2019-04-25T19:40:08.031Z,1010.70
2019-04-25T19:50:08.671Z,1010.73
2019-04-25T20:00:03.624Z,1010.84
2019-04-25T20:10:08.204Z,1010.82
2019-04-25T20:20:03.218Z,1010.87
2019-04-25T20:30:03.537Z,1010.96
2019-04-25T20:40:03.484Z,1011.02
2019-04-25T20:50:03.394Z,1010.93
2019-04-25T21:00:03.606Z,1010.97
2019-04-25T21:10:03.840Z,1010.99
2019-04-25T21:20:08.779Z,1010.96
2019-04-25T21:30:04.500Z,1010.88
2019-04-25T21:40:03.990Z,1010.85
2019-04-25T21:50:04.205Z,1010.77
2019-04-25T22:00:10.070Z,1010.73
2019-04-25T22:10:03.926Z,1010.75
2019-04-25T22:20:04.301Z,1010.67
2019-04-25T22:30:05.435Z,1010.61
2019-04-25T22:40:08.507Z,1010.70
2019-04-25T22:50:04.874Z,1010.79
2019-04-25T23:00:05.719Z,1010.95
2019-04-25T23:10:10.269Z,1010.73
2019-04-25T23:20:10.010Z,1010.56
2019-04-25T23:30:08.069Z,1010.62
2019-04-25T23:40:10.273Z,1010.62
2019-04-25T23:50:03.489Z,1010.51
